Terminal Aerodrome Forecast
Issued by NWS

Home | Current Version | Previous Version | Text Only | Print | Product List | Glossary On
Versions: 1 2 3 4 5 6 7 8 9 10 11 12 13 14 15 16 17 18 19 20 21 22 23
000
FTUS43 KIND 200300 AAA
TAFBMG
TAF AMD
KBMG 200336Z 2004/2024 12003KT 3SM BR SCT250
     FM201500 22011G18KT P6SM SCT120 BKN250
      AMD LTD TO CLD VIS AND WIND TIL 201300=

USA.gov is the U.S. government's official web portal to all federal, state and local government web resources and services.